Time;durP1;ratioP1;P1;durP2;ratioP2;P2;SDS_P1;SDS_P2;PMS_P1;PMS_P2;Temp;Humidity;BMP_temperature;BMP_pressure;BME280_temperature;BME280_humidity;BME280_pressure;Samples;Min_cycle;Max_cycle;Signal;HPM_P1;HPM_P2
2021/04/14 00:01:23;;;;;;;8.38;7.57;;;;;;;30.88;55.98;101134.38;5073381;27;70051;-35
2021/04/14 00:04:06;;;;;;;20.05;8.57;;;;;;;30.94;55.88;101141.63;5086366;27;65289;-35
2021/04/14 00:06:36;;;;;;;23.20;8.48;;;;;;;30.93;56.51;101145.38;5081282;27;69825;-35
2021/04/14 00:09:06;;;;;;;14.02;8.75;;;;;;;30.98;56.56;101148.28;5076052;27;66020;-36
2021/04/14 00:11:39;;;;;;;14.52;8.60;;;;;;;31.03;57.15;101143.03;5076061;27;69923;-35
2021/04/14 00:14:10;;;;;;;20.70;8.57;;;;;;;31.07;56.88;101149.69;5074994;27;65232;-35
2021/04/14 00:16:40;;;;;;;13.47;8.23;;;;;;;31.12;57.04;101154.47;5074269;27;69926;-34
2021/04/14 00:19:14;;;;;;;25.77;8.73;;;;;;;31.16;57.85;101159.25;5080056;27;65214;-35
2021/04/14 00:21:44;;;;;;;24.88;8.57;;;;;;;31.23;57.59;101182.75;5075734;27;70116;-35
2021/04/14 00:24:16;;;;;;;9.60;7.65;;;;;;;31.06;58.23;101167.00;5064563;27;66323;-34
2021/04/14 00:26:45;;;;;;;15.98;8.13;;;;;;;31.20;58.19;101194.88;5059571;27;69927;-34
2021/04/14 00:29:18;;;;;;;15.00;7.97;;;;;;;31.21;58.90;101193.84;5060917;27;66382;-34
2021/04/14 00:31:50;;;;;;;18.88;8.43;;;;;;;31.21;58.31;101193.00;5060594;27;69929;-34
2021/04/14 00:34:21;;;;;;;13.23;7.95;;;;;;;31.24;58.78;101195.28;5062242;27;65436;-34
2021/04/14 00:36:50;;;;;;;14.15;8.77;;;;;;;31.29;58.16;101198.19;5066708;27;69083;-35
2021/04/14 00:39:23;;;;;;;16.17;8.82;;;;;;;31.22;58.52;101198.19;5061428;27;66265;-35
2021/04/14 00:41:55;;;;;;;22.63;8.05;;;;;;;31.25;57.79;101200.47;5060349;27;70036;-34
2021/04/14 00:44:25;;;;;;;12.88;7.78;;;;;;;31.35;57.79;101213.56;5061350;27;65347;-34
2021/04/14 00:46:54;;;;;;;14.05;9.18;;;;;;;31.33;57.37;101210.25;5062914;27;70694;-34
2021/04/14 00:49:24;;;;;;;14.70;8.73;;;;;;;31.34;57.34;101218.19;5061470;27;66178;-34
2021/04/14 00:51:53;;;;;;;11.90;9.63;;;;;;;31.39;56.76;101229.22;5052346;27;69148;-34
2021/04/14 00:54:22;;;;;;;18.80;10.20;;;;;;;31.39;56.74;101234.63;5069020;27;65529;-34
2021/04/14 00:56:52;;;;;;;24.67;12.05;;;;;;;31.41;57.53;101234.44;5069360;27;70244;-35
2021/04/14 00:59:21;;;;;;;15.43;9.90;;;;;;;31.42;57.02;101229.84;5060798;27;65939;-34
2021/04/14 01:01:51;;;;;;;17.10;10.05;;;;;;;31.43;57.12;101221.50;5058534;27;70049;-35
2021/04/14 01:04:22;;;;;;;20.13;9.95;;;;;;;31.47;56.72;101220.00;5062089;27;65932;-36
2021/04/14 01:06:52;;;;;;;17.50;10.50;;;;;;;31.54;56.88;101220.00;5056757;27;69711;-34
2021/04/14 01:09:22;;;;;;;16.13;10.40;;;;;;;31.54;56.63;101218.09;5062569;27;66023;-34
2021/04/14 01:11:57;;;;;;;16.60;9.65;;;;;;;31.51;56.67;101213.13;5064641;28;70331;-34
2021/04/14 01:14:28;;;;;;;14.85;9.27;;;;;;;31.54;56.27;101218.09;5062165;27;66162;-34
2021/04/14 01:16:57;;;;;;;12.60;9.65;;;;;;;31.54;56.60;101228.13;5065536;27;69804;-34
2021/04/14 01:19:26;;;;;;;14.23;9.73;;;;;;;31.59;56.71;101221.00;5058976;27;66122;-34
2021/04/14 01:21:56;;;;;;;15.10;8.85;;;;;;;31.60;56.66;101216.41;5055789;27;69900;-34
2021/04/14 01:24:26;;;;;;;11.80;8.85;;;;;;;31.60;56.37;101210.97;5061632;27;66044;-34
2021/04/14 01:26:55;;;;;;;13.90;9.50;;;;;;;31.64;56.65;101216.78;5059543;27;69992;-34
2021/04/14 01:29:24;;;;;;;11.85;9.25;;;;;;;31.68;56.47;101218.00;5057685;27;65218;-34
2021/04/14 01:31:55;;;;;;;10.13;9.10;;;;;;;31.66;56.08;101220.94;5058917;27;69174;-35
2021/04/14 01:34:24;;;;;;;11.60;9.68;;;;;;;31.68;56.17;101207.16;5060431;28;66198;-34
2021/04/14 01:36:54;;;;;;;10.18;9.10;;;;;;;31.69;56.37;101216.97;5058709;27;70979;-34
2021/04/14 01:39:23;;;;;;;10.85;9.70;;;;;;;31.70;56.30;101207.78;5058530;27;65106;-34
2021/04/14 01:41:53;;;;;;;11.05;9.70;;;;;;;31.75;55.76;101207.97;5058479;27;69656;-33
2021/04/14 01:44:26;;;;;;;15.40;9.93;;;;;;;31.80;55.65;101210.84;5059715;27;66128;-34
2021/04/14 01:46:57;;;;;;;;;;;;;;;31.75;56.47;101218.81;5066434;27;70256;-35
2021/04/14 01:49:27;;;;;;;9.90;8.90;;;;;;;31.87;55.48;101211.63;5068714;27;66341;-34
2021/04/14 01:51:57;;;;;;;11.50;9.32;;;;;;;31.89;55.62;101224.97;5062959;27;69148;-35
2021/04/14 01:54:29;;;;;;;10.27;9.35;;;;;;;31.86;55.25;101217.28;5059078;27;65584;-35
2021/04/14 01:57:02;;;;;;;12.25;9.27;;;;;;;31.87;55.44;101217.03;5065059;27;69868;-35
2021/04/14 01:59:31;;;;;;;10.10;8.98;;;;;;;31.90;55.61;101222.06;5044759;28;65766;-34
2021/04/14 02:02:01;;;;;;;10.82;9.35;;;;;;;31.94;54.91;101215.16;5060437;27;69864;-34
2021/04/14 02:04:31;;;;;;;9.38;8.43;;;;;;;31.97;55.24;101213.91;5059974;27;66038;-35
2021/04/14 02:07:01;;;;;;;10.63;7.93;;;;;;;31.99;54.63;101218.06;5076198;27;70448;-34
2021/04/14 02:09:30;;;;;;;8.80;7.85;;;;;;;32.04;54.67;101210.09;5058771;27;66252;-34
2021/04/14 02:12:00;;;;;;;9.63;8.73;;;;;;;32.05;54.67;101219.88;5058954;27;70835;-35
2021/04/14 02:14:32;;;;;;;9.95;8.48;;;;;;;32.09;54.84;101220.25;5061502;27;66638;-35
2021/04/14 02:17:01;;;;;;;11.15;8.45;;;;;;;32.11;54.56;101223.59;5061021;27;69274;-34
2021/04/14 02:19:31;;;;;;;9.18;8.18;;;;;;;32.15;54.42;101223.97;5057816;27;65880;-34
2021/04/14 02:22:03;;;;;;;11.50;7.60;;;;;;;32.19;54.25;101212.47;5057676;27;69307;-35
2021/04/14 02:24:33;;;;;;;8.20;7.47;;;;;;;32.22;54.49;101216.63;5061704;27;65781;-34
2021/04/14 02:27:02;;;;;;;8.05;7.32;;;;;;;32.26;53.94;101220.53;5055363;27;69193;-34
2021/04/14 02:29:32;;;;;;;8.00;7.30;;;;;;;32.29;53.99;101220.13;5063317;27;65451;-34
2021/04/14 02:32:02;;;;;;;14.82;7.55;;;;;;;32.31;54.08;101212.56;5055171;27;68960;-35
2021/04/14 02:34:31;;;;;;;8.10;7.30;;;;;;;32.34;53.61;101211.28;5055765;27;65801;-34
2021/04/14 02:37:03;;;;;;;9.73;7.40;;;;;;;32.34;53.82;101220.25;5056972;27;70221;-34
2021/04/14 02:39:33;;;;;;;14.88;7.47;;;;;;;32.41;53.57;101222.94;5068175;28;66589;-34
2021/04/14 02:42:06;;;;;;;8.57;7.47;;;;;;;32.43;53.66;101218.94;5063661;27;70118;-34
2021/04/14 02:44:36;;;;;;;7.90;7.15;;;;;;;32.49;53.41;101218.09;5077592;27;66033;-35
2021/04/14 02:47:06;;;;;;;7.75;7.03;;;;;;;32.55;53.23;101215.53;5071898;27;69849;-35
2021/04/14 02:49:36;;;;;;;6.65;6.15;;;;;;;32.56;53.40;101225.31;5055432;28;65941;-35
2021/04/14 02:52:25;;;;;;;7.63;6.82;;;;;;;32.64;53.04;101233.19;5069760;28;69456;-35
2021/04/14 02:54:54;;;;;;;7.20;6.60;;;;;;;32.69;52.79;101225.22;5066549;27;65626;-34
2021/04/14 02:57:25;;;;;;;8.60;7.05;;;;;;;32.70;53.05;101222.25;5060044;27;69399;-35
2021/04/14 02:59:54;;;;;;;7.32;6.65;;;;;;;32.67;52.82;101208.28;5057741;27;65659;-34
2021/04/14 03:02:24;;;;;;;7.57;6.95;;;;;;;32.76;52.55;101223.22;5069207;27;69822;-34
2021/04/14 03:04:53;;;;;;;9.23;6.80;;;;;;;32.77;52.81;101227.63;5059134;27;66056;-35
2021/04/14 03:07:23;;;;;;;6.65;6.05;;;;;;;32.81;52.63;101228.81;5055079;27;69891;-34
2021/04/14 03:10:04;;;;;;;7.40;6.70;;;;;;;32.86;52.80;101234.41;5071793;27;65950;-34
2021/04/14 03:12:50;;;;;;;6.85;6.32;;;;;;;32.90;52.51;101219.34;5063519;28;70134;-34
2021/04/14 03:15:28;;;;;;;7.03;6.32;;;;;;;32.87;52.07;101200.75;5056194;27;65494;-34
2021/04/14 03:18:12;;;;;;;6.45;5.95;;;;;;;32.99;51.99;101216.28;5077272;27;69960;-34
2021/04/14 03:20:42;;;;;;;6.50;6.00;;;;;;;33.05;52.14;101223.59;5066911;27;66543;-34
2021/04/14 03:23:14;;;;;;;6.57;5.97;;;;;;;33.09;51.86;101224.78;5063190;27;70007;-35
2021/04/14 03:25:44;;;;;;;6.75;6.25;;;;;;;33.11;52.14;101218.06;5055586;27;66249;-34
2021/04/14 03:28:13;;;;;;;5.85;5.45;;;;;;;33.11;51.68;101206.38;5055138;27;69936;-34
2021/04/14 03:30:46;;;;;;;9.40;5.85;;;;;;;33.19;51.82;101206.06;5056080;28;64723;-35
2021/04/14 03:33:21;;;;;;;6.15;5.65;;;;;;;33.22;51.80;101213.75;5055867;28;69035;-34
2021/04/14 03:35:53;;;;;;;6.82;6.15;;;;;;;33.26;51.56;101212.22;5071398;27;65264;-35
2021/04/14 03:38:22;;;;;;;8.85;5.93;;;;;;;33.28;51.54;101210.13;5054860;27;69511;-35
2021/04/14 03:40:52;;;;;;;5.95;5.47;;;;;;;33.29;51.47;101209.09;5068760;28;65553;-35
2021/04/14 03:43:22;;;;;;;9.05;5.90;;;;;;;33.33;51.42;101204.81;5056250;27;69943;-35
2021/04/14 03:45:56;;;;;;;6.43;5.90;;;;;;;33.37;51.18;101210.63;5072022;27;66031;-34
2021/04/14 03:48:26;;;;;;;6.10;5.60;;;;;;;33.42;51.30;101216.22;5069037;27;69303;-34
2021/04/14 03:50:56;;;;;;;9.00;6.25;;;;;;;33.45;51.40;101212.22;5070457;27;66395;-35
2021/04/14 03:53:31;;;;;;;6.25;5.68;;;;;;;33.50;51.12;101193.31;5070297;27;70129;-35
2021/04/14 03:56:04;;;;;;;6.20;5.70;;;;;;;33.44;50.95;101178.75;5054756;27;66886;-35
2021/04/14 03:58:36;;;;;;;5.80;5.40;;;;;;;33.58;50.80;101184.84;5057046;27;69306;-35
2021/04/14 04:01:10;;;;;;;5.43;5.03;;;;;;;33.60;50.96;101182.75;5060110;27;65986;-35
2021/04/14 04:03:40;;;;;;;6.85;5.55;;;;;;;33.63;50.69;101182.28;5070054;27;70496;-35
2021/04/14 04:06:12;;;;;;;5.85;5.45;;;;;;;33.65;50.72;101171.97;5060352;27;65963;-35
2021/04/14 04:08:42;;;;;;;5.70;5.30;;;;;;;33.69;50.85;101173.19;5058266;27;69468;-35
2021/04/14 04:11:19;;;;;;;6.82;5.82;;;;;;;33.73;50.66;101176.25;5076005;27;65553;-35
2021/04/14 04:13:52;;;;;;;7.03;5.10;;;;;;;33.75;50.50;101172.25;5067190;27;69851;-35
2021/04/14 04:16:22;;;;;;;6.17;5.67;;;;;;;33.81;50.54;101174.03;5076129;27;66633;-34
2021/04/14 04:18:55;;;;;;;6.40;5.03;;;;;;;33.85;50.53;101168.13;5065906;27;69919;-35
2021/04/14 04:21:25;;;;;;;5.43;4.93;;;;;;;33.91;49.93;101161.75;5060036;27;66058;-35
2021/04/14 04:23:54;;;;;;;6.65;5.35;;;;;;;33.95;50.25;101152.88;5058023;28;70546;-35
2021/04/14 04:26:24;;;;;;;5.80;5.30;;;;;;;33.95;50.27;101146.59;5060210;27;66314;-35
2021/04/14 04:28:54;;;;;;;4.95;4.55;;;;;;;33.99;49.99;101142.34;5074028;27;70150;-35
2021/04/14 04:31:24;;;;;;;6.13;5.13;;;;;;;34.02;49.92;101139.16;5071658;27;66339;-35
2021/04/14 04:33:53;;;;;;;5.05;4.63;;;;;;;34.06;49.79;101137.66;5065320;27;69787;-34
2021/04/14 04:36:22;;;;;;;6.00;5.47;;;;;;;34.06;50.00;101129.47;5050759;28;65369;-35
2021/04/14 04:38:52;;;;;;;6.78;4.72;;;;;;;34.10;49.96;101122.50;5073992;27;70111;-35
2021/04/14 04:41:28;;;;;;;5.50;5.10;;;;;;;34.13;49.91;101127.50;5061821;27;66020;-35
2021/04/14 04:43:58;;;;;;;6.13;5.22;;;;;;;34.17;49.75;101116.94;5070369;27;69817;-35
2021/04/14 04:46:27;;;;;;;5.40;5.00;;;;;;;34.18;49.69;101110.41;5060724;27;66017;-34
2021/04/14 04:48:57;;;;;;;5.75;5.25;;;;;;;34.20;50.04;101111.03;5058389;27;69983;-34
2021/04/14 04:51:30;;;;;;;5.15;4.80;;;;;;;34.23;49.58;101111.34;5057738;27;65974;-35
2021/04/14 04:54:00;;;;;;;5.25;4.85;;;;;;;34.24;49.93;101096.69;5057399;28;70147;-34
2021/04/14 04:56:29;;;;;;;5.32;5.03;;;;;;;34.23;49.82;101089.56;5073056;27;65969;-35
2021/04/14 04:58:58;;;;;;;5.35;4.85;;;;;;;34.30;49.78;101089.47;5065229;27;69923;-35
2021/04/14 05:01:31;;;;;;;5.38;4.85;;;;;;;34.33;49.52;101085.44;5072998;27;66506;-34
2021/04/14 05:04:01;;;;;;;5.25;4.75;;;;;;;34.31;49.68;101069.34;5073619;27;70089;-35
2021/04/14 05:06:50;;;;;;;6.80;4.25;;;;;;;34.36;49.86;101065.91;5058029;27;65691;-35
2021/04/14 05:09:22;;;;;;;4.40;4.10;;;;;;;34.37;49.59;101067.53;5074636;27;68958;-34
2021/04/14 05:11:53;;;;;;;5.10;4.70;;;;;;;34.37;49.68;101065.66;5065380;27;66133;-35
2021/04/14 05:14:25;;;;;;;4.75;4.45;;;;;;;34.39;49.66;101046.34;5057466;27;69194;-34
2021/04/14 05:16:55;;;;;;;5.38;4.88;;;;;;;34.39;49.72;101049.06;5080484;27;66824;-35
2021/04/14 05:19:33;;;;;;;5.45;5.00;;;;;;;34.42;49.39;101034.97;5064438;27;70531;-34
2021/04/14 05:22:04;;;;;;;4.95;4.47;;;;;;;34.43;49.47;101033.91;5064999;27;65208;-35
2021/04/14 05:24:39;;;;;;;5.03;4.63;;;;;;;34.47;49.56;101026.91;5072501;28;70100;-35
2021/04/14 05:27:09;;;;;;;5.03;4.45;;;;;;;34.46;49.60;101017.06;5059267;28;65267;-35
2021/04/14 05:29:39;;;;;;;5.25;4.40;;;;;;;34.49;49.45;101013.84;5061253;27;69910;-35
2021/04/14 05:32:12;;;;;;;4.40;4.03;;;;;;;34.52;49.50;101015.28;5058002;27;66937;-36
2021/04/14 05:34:43;;;;;;;5.65;4.63;;;;;;;34.54;49.43;101013.16;5071344;27;69294;-34
2021/04/14 05:37:13;;;;;;;4.97;4.43;;;;;;;34.54;49.25;101003.06;5073963;27;65784;-34
2021/04/14 05:39:42;;;;;;;5.63;4.90;;;;;;;34.58;49.33;100998.84;5067103;27;69832;-35
2021/04/14 05:42:15;;;;;;;4.60;4.20;;;;;;;34.61;49.12;101000.25;5060056;27;65180;-34
2021/04/14 05:44:44;;;;;;;4.88;4.57;;;;;;;34.64;49.05;100984.25;5066662;27;69876;-35
2021/04/14 05:47:19;;;;;;;4.72;4.32;;;;;;;34.67;49.12;100981.03;5062149;27;66906;-35
2021/04/14 05:49:52;;;;;;;4.90;4.47;;;;;;;34.72;49.05;100971.31;5066392;27;69147;-35
2021/04/14 05:52:21;;;;;;;5.03;4.63;;;;;;;34.75;48.71;100965.38;5062559;27;65658;-36
2021/04/14 05:54:50;;;;;;;4.85;4.45;;;;;;;34.78;48.79;100964.88;5061995;27;70881;-35
2021/04/14 05:57:26;;;;;;;5.53;4.50;;;;;;;34.78;48.56;100948.53;5066814;27;66209;-34
2021/04/14 05:59:58;;;;;;;4.40;4.00;;;;;;;34.82;48.59;100944.22;5059476;27;69864;-35
2021/04/14 06:02:37;;;;;;;5.10;4.70;;;;;;;34.83;48.58;100935.00;5067352;27;66167;-35
2021/04/14 06:05:07;;;;;;;5.60;4.32;;;;;;;34.88;48.72;100927.72;5057505;27;69604;-35
2021/04/14 06:07:36;;;;;;;4.05;3.75;;;;;;;34.90;48.57;100920.09;5073453;27;66037;-35
2021/04/14 06:10:07;;;;;;;4.32;3.92;;;;;;;34.93;48.48;100918.78;5066719;27;69931;-35
2021/04/14 06:12:46;;;;;;;5.05;4.60;;;;;;;34.99;48.11;100903.34;5072676;27;66391;-34
2021/04/14 06:15:29;;;;;;;5.38;4.30;;;;;;;34.91;48.38;100880.91;5056733;27;69863;-34
2021/04/14 06:18:15;;;;;;;4.82;4.50;;;;;;;35.02;48.38;100887.34;5060221;27;66374;-34
2021/04/14 06:20:50;;;;;;;4.65;4.25;;;;;;;35.06;48.18;100885.78;5068879;27;69743;-36
2021/04/14 06:23:27;;;;;;;4.95;4.55;;;;;;;35.09;48.01;100873.56;5059413;27;66847;-34
2021/04/14 06:26:11;;;;;;;5.93;4.13;;;;;;;35.10;48.26;100870.59;5059621;27;70457;-35
2021/04/14 06:28:41;;;;;;;4.85;4.38;;;;;;;35.12;48.25;100868.44;5058219;28;66354;-35
2021/04/14 06:31:12;;;;;;;4.57;4.18;;;;;;;35.16;48.53;100862.47;5057318;27;69500;-34
2021/04/14 06:33:48;;;;;;;4.90;4.50;;;;;;;35.18;48.02;100852.16;5059677;27;65308;-34
2021/04/14 06:36:18;;;;;;;5.72;4.22;;;;;;;35.20;48.13;100848.09;5056914;27;69770;-34
2021/04/14 06:38:52;;;;;;;4.95;4.55;;;;;;;35.21;48.21;100838.00;5060166;28;66021;-34
2021/04/14 06:42:02;;;;;;;6.63;4.13;;;;;;;35.23;47.74;100835.88;5068968;27;70564;-35
2021/04/14 06:44:52;;;;;;;4.60;4.20;;;;;;;35.24;48.00;100830.13;5057345;27;67421;-35
2021/04/14 06:47:29;;;;;;;10.00;4.63;;;;;;;35.25;47.88;100817.34;5057316;28;70214;-34
2021/04/14 06:50:15;;;;;;;4.05;3.75;;;;;;;35.13;47.37;100788.31;5058436;28;65097;-34
2021/04/14 06:53:26;;;;;;;7.72;4.50;;;;;;;35.22;47.67;100801.50;5069124;27;69921;-34
2021/04/14 06:56:00;;;;;;;4.88;4.22;;;;;;;35.16;47.97;100770.63;5057464;27;65831;-34
2021/04/14 06:58:40;;;;;;;4.50;4.20;;;;;;;35.19;47.44;100763.81;5059426;27;69931;-34
2021/04/14 07:01:19;;;;;;;5.57;4.10;;;;;;;35.25;47.77;100776.44;5060005;27;65750;-34
2021/04/14 07:04:13;;;;;;;5.20;4.80;;;;;;;35.24;47.53;100767.41;5054226;28;69300;-34
2021/04/14 07:06:46;;;;;;;4.90;4.50;;;;;;;35.28;48.03;100756.84;5063493;27;66268;-34
2021/04/14 07:09:43;;;;;;;5.78;4.72;;;;;;;35.19;47.43;100744.72;5061149;28;68168;-34
2021/04/14 07:12:21;;;;;;;5.63;4.55;;;;;;;35.24;47.75;100742.06;5070681;27;66068;-34
2021/04/14 07:14:54;;;;;;;5.10;4.60;;;;;;;35.17;47.88;100723.19;5069626;27;70298;-34
2021/04/14 07:17:50;;;;;;;4.35;4.05;;;;;;;35.22;47.48;100736.06;5074147;27;65200;-34
2021/04/14 07:20:39;;;;;;;5.00;4.60;;;;;;;35.31;47.38;100748.16;5067299;27;70541;-34
2021/04/14 07:23:27;;;;;;;5.28;4.85;;;;;;;35.34;47.79;100739.47;5060351;27;66454;-34
2021/04/14 07:26:08;;;;;;;5.13;4.20;;;;;;;35.37;47.73;100749.88;5064740;27;69658;-35
2021/04/14 07:29:14;;;;;;;4.75;3.92;;;;;;;35.28;47.74;100735.03;5070301;27;65523;-35
2021/04/14 07:31:47;;;;;;;4.80;4.40;;;;;;;35.39;47.74;100739.53;5057764;28;69345;-35
2021/04/14 07:35:12;;;;;;;5.00;4.60;;;;;;;35.43;47.63;100737.94;5059190;27;65320;-34
2021/04/14 07:37:47;;;;;;;4.80;4.40;;;;;;;35.43;47.85;100732.47;5051779;27;69855;-34
2021/04/14 07:40:49;;;;;;;5.00;4.60;;;;;;;35.38;47.44;100729.69;5074132;27;65236;-34
2021/04/14 07:43:34;;;;;;;4.68;4.28;;;;;;;35.39;47.62;100720.44;5060317;27;70337;-35
2021/04/14 07:46:08;;;;;;;6.60;4.35;;;;;;;35.43;47.78;100705.19;5065427;27;66159;-34
2021/04/14 07:48:42;;;;;;;5.13;4.57;;;;;;;35.44;47.64;100706.88;5061989;27;69938;-35
2021/04/14 07:51:17;;;;;;;6.95;5.10;;;;;;;35.42;47.46;100700.84;5071121;27;66090;-34
2021/04/14 07:54:01;;;;;;;4.90;4.43;;;;;;;35.39;47.67;100709.53;5067806;27;70705;-34
2021/04/14 07:56:45;;;;;;;5.18;4.80;;;;;;;35.38;47.86;100696.13;5074020;27;65344;-34
2021/04/14 07:59:43;;;;;;;4.65;4.25;;;;;;;35.34;47.59;100680.28;5059343;27;69751;-34
2021/04/14 08:02:28;;;;;;;5.13;4.75;;;;;;;35.45;47.67;100686.69;5060672;27;66104;-34
2021/04/14 08:05:27;;;;;;;5.00;4.60;;;;;;;35.32;47.79;100670.72;5060210;28;70007;-34
2021/04/14 08:07:56;;;;;;;6.30;4.70;;;;;;;35.39;48.02;100682.25;5062258;27;66200;-34
2021/04/14 08:10:30;;;;;;;4.93;4.53;;;;;;;35.32;47.65;100657.09;5070382;27;69874;-35
2021/04/14 08:13:05;;;;;;;4.57;4.28;;;;;;;35.35;47.81;100670.19;5074209;27;65942;-35
2021/04/14 08:15:45;;;;;;;4.93;4.53;;;;;;;35.37;47.85;100668.06;5059006;27;69147;-35
2021/04/14 08:18:17;;;;;;;6.07;4.85;;;;;;;35.38;47.84;100660.69;5070328;27;65443;-35
2021/04/14 08:21:05;;;;;;;4.80;4.50;;;;;;;35.25;47.93;100642.84;5059205;27;70058;-35
2021/04/14 08:23:39;;;;;;;4.70;4.40;;;;;;;35.37;47.92;100646.22;5058994;28;65151;-35
2021/04/14 08:26:16;;;;;;;4.93;4.53;;;;;;;35.36;47.51;100647.31;5054133;28;69475;-35
2021/04/14 08:28:47;;;;;;;8.55;4.50;;;;;;;35.35;47.95;100637.47;5059406;27;65095;-35
2021/04/14 08:31:22;;;;;;;5.07;4.57;;;;;;;35.35;47.81;100640.19;5073752;27;69939;-34
2021/04/14 08:33:53;;;;;;;7.93;4.68;;;;;;;35.24;48.00;100614.72;5072489;27;65958;-34
2021/04/14 08:36:40;;;;;;;5.10;4.70;;;;;;;35.26;47.63;100619.94;5079752;27;70713;-34
2021/04/14 08:39:18;;;;;;;5.10;4.75;;;;;;;35.21;47.49;100595.34;5062693;28;66535;-34
2021/04/14 08:41:49;;;;;;;5.10;4.80;;;;;;;35.47;47.97;100629.97;5062471;27;69904;-34
2021/04/14 08:44:34;;;;;;;5.10;4.70;;;;;;;35.45;47.79;100621.22;5065781;27;66550;-34
2021/04/14 08:47:16;;;;;;;5.40;4.18;;;;;;;35.37;47.70;100608.06;5063849;27;70241;-34
2021/04/14 08:49:50;;;;;;;4.90;4.00;;;;;;;35.51;47.78;100625.66;5071183;27;65783;-34
2021/04/14 08:52:51;;;;;;;5.18;4.68;;;;;;;35.40;47.97;100596.63;5070905;27;70497;-34
2021/04/14 08:55:23;;;;;;;5.07;4.68;;;;;;;35.54;48.19;100618.84;5056992;27;66027;-36
2021/04/14 08:57:54;;;;;;;7.50;5.00;;;;;;;35.50;48.18;100615.00;5058073;28;69998;-35
2021/04/14 09:00:26;;;;;;;4.95;4.57;;;;;;;35.51;47.74;100620.19;5063848;27;65070;-35
2021/04/14 09:03:02;;;;;;;7.13;4.93;;;;;;;35.37;47.71;100586.22;5060613;27;70176;-35
2021/04/14 09:05:33;;;;;;;5.68;5.18;;;;;;;35.57;48.04;100613.72;5059074;27;65846;-35
2021/04/14 09:08:10;;;;;;;4.97;4.68;;;;;;;35.56;47.70;100606.63;5068687;27;69242;-34
2021/04/14 09:11:01;;;;;;;5.28;4.88;;;;;;;35.47;47.95;100591.78;5087982;27;64659;-35
2021/04/14 09:14:01;;;;;;;5.63;5.13;;;;;;;35.47;48.01;100575.44;5086851;27;69596;-34
2021/04/14 09:16:33;;;;;;;7.18;5.25;;;;;;;35.58;47.83;100579.91;5070287;27;65476;-34
2021/04/14 09:19:24;;;;;;;5.45;5.05;;;;;;;35.55;47.24;100566.78;5067366;27;69567;-34
2021/04/14 09:22:20;;;;;;;5.50;4.80;;;;;;;35.65;47.37;100576.97;5060745;27;65155;-34
2021/04/14 09:24:51;;;;;;;5.32;4.93;;;;;;;35.71;47.47;100580.56;5060822;28;69149;-34
2021/04/14 09:27:39;;;;;;;5.75;5.25;;;;;;;35.70;47.80;100582.47;5063249;28;65091;-34
2021/04/14 09:30:30;;;;;;;5.80;5.30;;;;;;;35.75;47.76;100576.25;5068237;27;69727;-34
2021/04/14 09:33:05;;;;;;;5.85;5.38;;;;;;;35.70;47.46;100570.75;5061452;27;66399;-34
2021/04/14 09:35:35;;;;;;;6.15;5.35;;;;;;;35.71;48.23;100577.81;5077340;27;69845;-34
2021/04/14 09:38:45;;;;;;;5.35;4.95;;;;;;;35.68;47.53;100567.44;5062637;27;65140;-34
2021/04/14 09:41:26;;;;;;;6.07;5.53;;;;;;;35.71;47.28;100561.47;5058321;27;69960;-35
2021/04/14 09:44:13;;;;;;;5.70;5.20;;;;;;;35.68;47.75;100564.72;5059035;27;66396;-34
2021/04/14 09:47:23;;;;;;;5.90;5.40;;;;;;;35.71;47.89;100564.19;5059338;28;70347;-35
2021/04/14 09:50:16;;;;;;;5.97;5.38;;;;;;;35.62;47.50;100549.38;5071257;28;66323;-33
2021/04/14 09:52:48;;;;;;;6.15;5.65;;;;;;;35.73;48.02;100564.75;5061938;27;69959;-35
2021/04/14 09:55:46;;;;;;;5.80;5.25;;;;;;;35.67;47.36;100563.06;5063854;27;65891;-35
2021/04/14 09:58:30;;;;;;;6.05;5.30;;;;;;;35.71;47.51;100558.72;5065004;27;68994;-35
2021/04/14 10:01:22;;;;;;;5.32;4.82;;;;;;;35.60;47.20;100537.91;5064146;27;66216;-34
2021/04/14 10:04:02;;;;;;;6.40;5.78;;;;;;;35.68;47.81;100559.25;5058028;27;70563;-35
2021/04/14 10:06:34;;;;;;;7.10;5.95;;;;;;;35.60;47.83;100551.53;5061196;27;65814;-34
2021/04/14 10:09:16;;;;;;;13.00;5.57;;;;;;;35.60;47.77;100567.91;5060430;27;69907;-35
2021/04/14 10:11:45;;;;;;;8.40;5.97;;;;;;;35.62;47.86;100565.75;5060267;28;65520;-35
2021/04/14 10:14:23;;;;;;;6.38;5.88;;;;;;;35.59;47.88;100583.47;5060318;28;70032;-34
2021/04/14 10:17:07;;;;;;;6.05;5.55;;;;;;;35.45;47.82;100572.13;5069248;27;65476;-35
2021/04/14 10:19:40;;;;;;;13.38;7.45;;;;;;;35.41;47.90;100587.38;5073726;27;69646;-35
2021/04/14 10:22:23;;;;;;;14.20;10.07;;;;;;;35.17;47.43;100596.94;5066408;27;65480;-35
2021/04/14 10:25:09;;;;;;;20.63;10.02;;;;;;;34.92;47.73;100601.00;5071598;27;69863;-35
2021/04/14 10:27:40;;;;;;;17.77;10.35;;;;;;;34.83;48.09;100602.53;5061924;28;66117;-35
2021/04/14 10:30:19;;;;;;;19.60;9.65;;;;;;;34.80;47.98;100600.28;5064149;27;69184;-35
2021/04/14 10:32:52;;;;;;;11.73;8.38;;;;;;;34.73;47.97;100608.66;5063280;27;65317;-34
2021/04/14 10:35:27;;;;;;;15.88;8.63;;;;;;;34.65;48.29;100606.38;5058707;27;69968;-35
2021/04/14 10:37:57;;;;;;;12.00;10.25;;;;;;;34.57;48.34;100609.53;5066401;28;65315;-35
2021/04/14 10:40:37;;;;;;;25.08;10.65;;;;;;;34.43;48.91;100603.59;5063487;27;70510;-36
2021/04/14 10:43:16;;;;;;;12.45;8.90;;;;;;;34.44;48.62;100602.53;5066610;27;66240;-35
2021/04/14 10:45:58;;;;;;;15.48;8.43;;;;;;;34.52;48.79;100623.06;5055578;27;69373;-36
2021/04/14 10:48:32;;;;;;;16.83;7.72;;;;;;;34.36;49.07;100622.03;5057947;27;66273;-35
2021/04/14 10:51:18;;;;;;;10.98;7.28;;;;;;;34.30;49.32;100631.19;5068203;27;69465;-34
2021/04/14 10:53:53;;;;;;;9.50;7.05;;;;;;;34.29;49.20;100626.81;5069849;27;65294;-35
2021/04/14 10:56:27;;;;;;;7.72;6.28;;;;;;;34.20;49.29;100610.91;5055920;27;69617;-35
2021/04/14 10:59:03;;;;;;;6.57;5.85;;;;;;;34.17;49.04;100605.97;5056888;27;66208;-35
2021/04/14 11:01:48;;;;;;;11.13;5.38;;;;;;;34.10;49.41;100609.91;5062741;27;69751;-35
2021/04/14 11:04:38;;;;;;;8.43;5.10;;;;;;;34.07;49.53;100618.59;5071976;27;66121;-35
2021/04/14 11:07:12;;;;;;;8.52;4.97;;;;;;;34.01;49.62;100612.22;5056860;27;70550;-35
2021/04/14 11:09:44;;;;;;;9.25;5.00;;;;;;;34.00;49.59;100626.91;5058491;27;66420;-35
2021/04/14 11:12:21;;;;;;;9.13;5.60;;;;;;;33.90;50.45;100632.16;5057860;27;69738;-35
2021/04/14 11:14:56;;;;;;;9.48;6.13;;;;;;;33.99;50.92;100652.44;5064411;27;65247;-36
2021/04/14 11:17:29;;;;;;;9.35;5.28;;;;;;;33.91;50.55;100650.16;5068380;27;69888;-37
2021/04/14 11:20:12;;;;;;;7.18;5.20;;;;;;;33.77;51.04;100650.47;5061992;27;66669;-37
2021/04/14 11:22:55;;;;;;;8.48;5.80;;;;;;;33.91;50.69;100671.94;5064735;27;69180;-36
2021/04/14 11:25:34;;;;;;;7.85;5.63;;;;;;;33.88;50.69;100677.84;5064720;28;66858;-35
2021/04/14 11:28:16;;;;;;;18.83;5.90;;;;;;;33.81;50.98;100678.81;5058643;27;70082;-35
2021/04/14 11:30:45;;;;;;;7.22;5.38;;;;;;;33.83;50.91;100685.94;5058204;27;66060;-36
2021/04/14 11:33:17;;;;;;;10.90;5.70;;;;;;;33.76;51.12;100691.50;5077806;27;69904;-35
2021/04/14 11:35:54;;;;;;;11.98;5.25;;;;;;;33.71;51.64;100688.69;5063269;27;65884;-35
2021/04/14 11:38:30;;;;;;;5.95;5.45;;;;;;;33.61;51.61;100681.19;5056424;27;70187;-37
2021/04/14 11:41:32;;;;;;;5.82;5.07;;;;;;;33.66;52.40;100705.78;5057196;28;65570;-35
2021/04/14 11:44:36;;;;;;;13.10;5.70;;;;;;;33.63;52.45;100724.44;5057237;27;68892;-35
2021/04/14 11:47:07;;;;;;;22.30;5.75;;;;;;;33.65;52.56;100725.88;5071704;27;66127;-34
2021/04/14 11:49:41;;;;;;;12.95;4.90;;;;;;;33.58;52.86;100722.47;5057280;27;69951;-35
2021/04/14 11:52:23;;;;;;;8.85;4.60;;;;;;;33.45;53.72;100717.28;5056297;27;66877;-34
2021/04/14 11:54:57;;;;;;;15.63;4.40;;;;;;;33.47;52.57;100724.13;5055474;27;70015;-35
2021/04/14 11:57:41;;;;;;;7.53;3.90;;;;;;;33.45;51.86;100739.03;5056498;27;66158;-35
2021/04/14 12:00:26;;;;;;;5.10;3.45;;;;;;;33.28;50.94;100739.78;5066069;27;69233;-36
2021/04/14 12:03:04;;;;;;;9.40;3.08;;;;;;;33.19;51.02;100735.81;5065113;28;65336;-35
2021/04/14 12:05:33;;;;;;;3.90;2.47;;;;;;;33.11;50.25;100744.31;5058599;28;69267;-36